createdAt,value
2022-08-04T00:01:46.541Z,19.20
2022-08-04T00:04:14.700Z,19.20
2022-08-04T00:06:44.462Z,19.10
2022-08-04T00:09:14.254Z,19.10
2022-08-04T00:11:44.851Z,19.10
2022-08-04T00:14:13.858Z,19.00
2022-08-04T00:16:41.451Z,19.00
2022-08-04T00:19:11.388Z,19.00
2022-08-04T00:21:39.457Z,19.00
2022-08-04T00:24:12.295Z,18.90
2022-08-04T00:26:40.087Z,18.90
2022-08-04T00:29:06.790Z,18.90
2022-08-04T00:31:56.329Z,18.90
2022-08-04T00:34:21.037Z,18.90
2022-08-04T00:36:47.841Z,18.90
2022-08-04T00:39:16.194Z,18.80
2022-08-04T00:41:56.343Z,18.80
2022-08-04T00:44:26.881Z,18.70
2022-08-04T00:47:08.819Z,18.70
2022-08-04T00:49:53.845Z,18.70
2022-08-04T00:52:52.941Z,18.70
2022-08-04T00:55:20.904Z,18.60
2022-08-04T00:57:47.554Z,18.60
2022-08-04T01:00:15.636Z,18.50
2022-08-04T01:02:51.664Z,18.50
2022-08-04T01:05:18.280Z,18.60
2022-08-04T01:07:57.099Z,18.50
2022-08-04T01:10:27.676Z,18.50
2022-08-04T01:13:03.662Z,18.50
2022-08-04T01:15:59.808Z,18.40
2022-08-04T01:18:33.071Z,18.40
2022-08-04T01:21:16.442Z,18.40
2022-08-04T01:23:43.151Z,18.40
2022-08-04T01:26:42.412Z,18.30
2022-08-04T01:29:02.527Z,18.30
2022-08-04T01:31:41.394Z,18.30
2022-08-04T01:34:11.658Z,18.30
2022-08-04T01:36:41.324Z,18.30
2022-08-04T01:39:26.999Z,18.20
2022-08-04T01:41:57.766Z,18.20
2022-08-04T01:44:27.233Z,18.20
2022-08-04T01:46:54.250Z,18.20
2022-08-04T01:49:22.001Z,18.10
2022-08-04T01:51:52.231Z,18.10
2022-08-04T01:54:19.274Z,18.10
2022-08-04T01:56:49.339Z,18.00
2022-08-04T01:59:20.763Z,18.00
2022-08-04T02:01:48.224Z,18.00
2022-08-04T02:04:21.747Z,18.00
2022-08-04T02:06:56.182Z,18.00
2022-08-04T02:09:54.426Z,18.00
2022-08-04T02:12:27.362Z,17.90
2022-08-04T02:14:59.757Z,17.90
2022-08-04T02:17:30.268Z,17.90
2022-08-04T02:20:15.346Z,17.80
2022-08-04T02:22:53.185Z,17.80
2022-08-04T02:25:23.433Z,17.80
2022-08-04T02:28:02.862Z,17.80
2022-08-04T02:30:48.535Z,17.80
2022-08-04T02:33:18.379Z,17.70
2022-08-04T02:35:45.972Z,17.70
2022-08-04T02:38:18.396Z,17.70
2022-08-04T02:40:54.026Z,17.70
2022-08-04T02:43:51.264Z,17.60
2022-08-04T02:46:17.940Z,17.60
2022-08-04T02:48:46.420Z,17.50
2022-08-04T02:51:13.827Z,17.50
2022-08-04T02:53:41.733Z,17.50
2022-08-04T02:56:09.481Z,17.50
2022-08-04T02:58:37.084Z,17.50
2022-08-04T03:01:04.469Z,17.50
2022-08-04T03:03:35.682Z,17.50
2022-08-04T03:06:11.582Z,17.50
2022-08-04T03:08:44.295Z,17.50
2022-08-04T03:11:29.896Z,17.50
2022-08-04T03:14:20.425Z,17.50
2022-08-04T03:16:49.832Z,17.40
2022-08-04T03:19:16.512Z,17.40
2022-08-04T03:21:43.139Z,17.40
2022-08-04T03:24:09.905Z,17.30
2022-08-04T03:26:36.596Z,17.30
2022-08-04T03:29:35.238Z,17.30
2022-08-04T03:32:15.434Z,17.20
2022-08-04T03:34:51.289Z,17.10
2022-08-04T03:37:17.962Z,17.10
2022-08-04T03:39:58.073Z,17.10
2022-08-04T03:42:24.731Z,17.10
2022-08-04T03:44:57.172Z,17.00
2022-08-04T03:47:25.964Z,17.10
2022-08-04T03:50:11.451Z,17.10
2022-08-04T03:53:09.238Z,17.10
2022-08-04T03:55:45.055Z,17.10
2022-08-04T03:58:30.568Z,17.10
2022-08-04T04:01:00.772Z,17.00
2022-08-04T04:03:28.548Z,17.10
2022-08-04T04:06:04.700Z,17.10
2022-08-04T04:08:40.439Z,17.10
2022-08-04T04:11:22.221Z,17.10
2022-08-04T04:13:51.992Z,17.10
2022-08-04T04:16:24.708Z,17.10
2022-08-04T04:18:54.427Z,17.10
2022-08-04T04:21:21.088Z,17.10
2022-08-04T04:24:14.552Z,17.10
2022-08-04T04:27:01.487Z,17.10
2022-08-04T04:29:31.228Z,17.10
2022-08-04T04:32:10.112Z,17.10
2022-08-04T04:34:45.992Z,17.10
2022-08-04T04:37:13.259Z,17.10
2022-08-04T04:39:43.052Z,17.10
2022-08-04T04:42:21.078Z,17.10
2022-08-04T04:44:59.974Z,17.20
2022-08-04T04:48:08.033Z,17.20
2022-08-04T04:50:38.372Z,17.30
2022-08-04T04:53:10.354Z,17.30
2022-08-04T04:55:47.695Z,17.40
2022-08-04T04:58:16.868Z,17.50
2022-08-04T05:00:46.378Z,17.60
2022-08-04T05:03:30.124Z,17.70
2022-08-04T05:06:03.081Z,17.70
2022-08-04T05:08:47.452Z,17.80
2022-08-04T05:11:34.447Z,17.80
2022-08-04T05:14:36.961Z,17.90
2022-08-04T05:16:59.052Z,17.90
2022-08-04T05:19:25.714Z,17.90
2022-08-04T05:22:01.581Z,18.00
2022-08-04T05:24:29.415Z,18.00
2022-08-04T05:27:03.662Z,18.10
2022-08-04T05:29:31.019Z,18.20
2022-08-04T05:32:01.600Z,18.20
2022-08-04T05:34:30.463Z,18.30
2022-08-04T05:37:01.643Z,18.30
2022-08-04T05:39:34.103Z,18.40
2022-08-04T05:42:04.393Z,18.50
2022-08-04T05:44:32.390Z,18.60
2022-08-04T05:46:59.342Z,18.60
2022-08-04T05:49:27.723Z,18.70
2022-08-04T05:51:55.946Z,18.70
2022-08-04T05:54:23.451Z,18.80
2022-08-04T05:56:51.066Z,18.90
2022-08-04T05:59:18.771Z,19.00
2022-08-04T06:01:55.680Z,19.00
2022-08-04T06:04:32.551Z,19.10
2022-08-04T06:06:59.350Z,19.20
2022-08-04T06:09:26.146Z,19.30
2022-08-04T06:12:02.153Z,19.30
2022-08-04T06:14:38.072Z,19.40
2022-08-04T06:17:05.743Z,19.50
2022-08-04T06:20:03.596Z,19.60
2022-08-04T06:22:41.739Z,19.70
2022-08-04T06:25:10.130Z,19.70
2022-08-04T06:27:37.302Z,19.80
2022-08-04T06:30:06.978Z,19.90
2022-08-04T06:32:42.081Z,20.00
2022-08-04T06:35:09.557Z,20.10
2022-08-04T06:37:42.761Z,20.20
2022-08-04T06:40:29.492Z,20.30
2022-08-04T06:42:59.643Z,20.40
2022-08-04T06:45:27.126Z,20.60
2022-08-04T06:47:54.401Z,20.70
2022-08-04T06:51:29.581Z,20.80
2022-08-04T06:53:08.112Z,20.90
2022-08-04T06:55:34.920Z,21.00
2022-08-04T06:58:03.323Z,21.20
2022-08-04T07:00:31.993Z,21.30
2022-08-04T07:02:59.416Z,21.40
2022-08-04T07:05:26.563Z,21.50
2022-08-04T07:07:58.001Z,21.70
2022-08-04T07:10:28.886Z,21.70
2022-08-04T07:12:56.500Z,21.80
2022-08-04T07:15:23.422Z,21.90
2022-08-04T07:17:52.173Z,22.00
2022-08-04T07:20:34.181Z,22.00
2022-08-04T07:23:06.399Z,22.10
2022-08-04T07:25:59.509Z,22.20
2022-08-04T07:28:24.504Z,22.30
2022-08-04T07:30:52.953Z,22.40
2022-08-04T07:33:19.708Z,22.50
2022-08-04T07:36:05.124Z,22.70
2022-08-04T07:38:37.876Z,22.70
2022-08-04T07:41:35.655Z,22.80
2022-08-04T07:44:04.188Z,22.90
2022-08-04T07:46:31.617Z,23.00
2022-08-04T07:48:59.844Z,23.00
2022-08-04T07:51:26.907Z,23.10
2022-08-04T07:53:56.471Z,23.20
2022-08-04T07:56:23.509Z,23.30
2022-08-04T07:58:50.471Z,23.40
2022-08-04T08:01:19.008Z,23.50
2022-08-04T08:03:46.598Z,23.50
2022-08-04T08:06:31.297Z,23.60
2022-08-04T08:09:13.419Z,23.70
2022-08-04T08:12:35.441Z,23.80
2022-08-04T08:14:28.334Z,23.80
2022-08-04T08:16:55.085Z,23.90
2022-08-04T08:19:21.907Z,23.90
2022-08-04T08:21:59.193Z,23.90
2022-08-04T08:24:41.817Z,24.00
2022-08-04T08:27:08.498Z,24.10
2022-08-04T08:29:35.566Z,24.10
2022-08-04T08:32:07.702Z,24.20
2022-08-04T08:34:35.570Z,24.30
2022-08-04T08:37:04.990Z,24.30
2022-08-04T08:39:38.250Z,24.40
2022-08-04T08:42:07.787Z,24.50
2022-08-04T08:45:01.597Z,24.60
2022-08-04T08:48:05.390Z,24.60
2022-08-04T08:50:39.884Z,24.70
2022-08-04T08:53:26.843Z,24.70
2022-08-04T08:56:02.581Z,24.80
2022-08-04T08:58:35.479Z,25.00
2022-08-04T09:01:05.042Z,25.10
2022-08-04T09:03:50.324Z,25.20
2022-08-04T09:06:52.591Z,25.20
2022-08-04T09:09:35.465Z,25.30
2022-08-04T09:12:15.621Z,25.40
2022-08-04T09:14:49.074Z,25.40
2022-08-04T09:17:38.708Z,25.40
2022-08-04T09:20:13.140Z,25.50
2022-08-04T09:22:58.323Z,25.50
2022-08-04T09:25:28.705Z,25.60
2022-08-04T09:27:59.853Z,25.60
2022-08-04T09:30:36.319Z,25.60
2022-08-04T09:33:45.756Z,25.70
2022-08-04T09:36:26.674Z,25.80
2022-08-04T09:39:06.412Z,25.90
2022-08-04T09:41:48.628Z,25.90
2022-08-04T09:44:50.140Z,26.00
2022-08-04T09:47:20.966Z,26.10
2022-08-04T09:50:23.345Z,26.10
2022-08-04T09:53:10.294Z,26.20
2022-08-04T09:55:54.817Z,26.20
2022-08-04T09:58:22.786Z,26.30
2022-08-04T10:00:58.617Z,26.40
2022-08-04T10:03:26.458Z,26.50
2022-08-04T10:05:56.231Z,26.50
2022-08-04T10:08:29.509Z,26.50
2022-08-04T10:10:56.237Z,26.60
2022-08-04T10:13:34.635Z,26.60
2022-08-04T10:16:07.843Z,26.60
2022-08-04T10:19:08.548Z,26.70
2022-08-04T10:21:59.240Z,26.70
2022-08-04T10:24:59.896Z,26.70
2022-08-04T10:27:45.318Z,26.80
2022-08-04T10:30:12.673Z,26.90
2022-08-04T10:32:44.714Z,27.00
2022-08-04T10:35:16.198Z,27.10
2022-08-04T10:37:59.375Z,27.20
2022-08-04T10:40:45.356Z,27.30
2022-08-04T10:43:31.001Z,27.20
2022-08-04T10:46:06.974Z,27.40
2022-08-04T10:48:52.612Z,27.40
2022-08-04T10:51:23.375Z,27.40
2022-08-04T10:53:51.879Z,27.40
2022-08-04T10:56:30.125Z,27.40
2022-08-04T10:59:23.269Z,27.50
2022-08-04T11:02:01.741Z,27.70
2022-08-04T11:04:44.314Z,27.70
2022-08-04T11:07:12.499Z,27.80
2022-08-04T11:09:39.994Z,27.90
2022-08-04T11:12:15.504Z,28.00
2022-08-04T11:14:46.922Z,28.10
2022-08-04T11:17:17.894Z,28.00
2022-08-04T11:20:31.782Z,28.00
2022-08-04T11:22:55.577Z,28.10
2022-08-04T11:25:28.218Z,28.10
2022-08-04T11:28:11.868Z,28.20
2022-08-04T11:30:44.848Z,28.30
2022-08-04T11:33:23.766Z,28.40
2022-08-04T11:35:59.525Z,28.40
2022-08-04T11:38:45.367Z,28.40
2022-08-04T11:41:20.479Z,28.30
2022-08-04T11:44:02.802Z,28.40
2022-08-04T11:46:34.563Z,28.40
2022-08-04T11:49:03.303Z,28.50
2022-08-04T11:51:31.432Z,28.50
2022-08-04T11:53:59.245Z,28.50
2022-08-04T11:56:35.829Z,28.50
2022-08-04T11:59:04.321Z,28.50
2022-08-04T12:01:50.008Z,28.60
2022-08-04T12:04:16.735Z,28.80
2022-08-04T12:07:28.847Z,29.00
2022-08-04T12:10:08.787Z,28.90
2022-08-04T12:12:58.954Z,28.90
2022-08-04T12:15:45.841Z,29.00
2022-08-04T12:18:23.978Z,29.00
2022-08-04T12:21:02.030Z,29.00
2022-08-04T12:23:39.880Z,29.10
2022-08-04T12:26:07.663Z,29.20
2022-08-04T12:29:08.365Z,29.40
2022-08-04T12:31:40.421Z,29.40
2022-08-04T12:34:09.053Z,29.60
2022-08-04T12:36:59.100Z,29.70
2022-08-04T12:39:27.041Z,29.60
2022-08-04T12:42:07.249Z,29.60
2022-08-04T12:44:37.439Z,29.60
2022-08-04T12:47:26.285Z,29.70
2022-08-04T12:50:00.476Z,29.80
2022-08-04T12:52:51.719Z,29.70
2022-08-04T12:55:16.879Z,29.70
2022-08-04T12:57:43.864Z,29.70
2022-08-04T13:00:11.332Z,29.80
2022-08-04T13:02:42.391Z,29.80
2022-08-04T13:05:16.799Z,29.80
2022-08-04T13:07:49.130Z,29.90
2022-08-04T13:10:17.549Z,29.90
2022-08-04T13:12:52.980Z,29.90
2022-08-04T13:15:23.325Z,29.90
2022-08-04T13:17:50.515Z,29.90
2022-08-04T13:20:23.908Z,29.90
2022-08-04T13:22:50.658Z,30.00
2022-08-04T13:26:42.490Z,30.00
2022-08-04T13:28:08.667Z,30.00
2022-08-04T13:30:35.483Z,30.00
2022-08-04T13:33:02.911Z,30.00
2022-08-04T13:35:54.752Z,30.20
2022-08-04T13:38:18.019Z,30.30
2022-08-04T13:40:45.614Z,30.30
2022-08-04T13:44:16.921Z,30.40
2022-08-04T13:46:14.036Z,30.30
2022-08-04T13:49:15.897Z,30.30
2022-08-04T13:51:57.584Z,30.30
2022-08-04T13:54:26.030Z,30.30
2022-08-04T13:56:59.159Z,30.40
2022-08-04T13:59:27.643Z,30.40
2022-08-04T14:01:59.911Z,30.60
2022-08-04T14:04:28.016Z,30.70
2022-08-04T14:07:26.437Z,30.70
2022-08-04T14:10:02.767Z,30.70
2022-08-04T14:12:38.844Z,30.70
2022-08-04T14:16:01.511Z,30.80
2022-08-04T14:18:18.028Z,30.80
2022-08-04T14:21:05.149Z,31.00
2022-08-04T14:23:51.141Z,31.00
2022-08-04T14:26:20.944Z,31.10
2022-08-04T14:29:28.199Z,31.10
2022-08-04T14:32:05.986Z,31.00
2022-08-04T14:34:39.512Z,31.10
2022-08-04T14:37:17.211Z,31.00
2022-08-04T14:40:17.751Z,31.10
2022-08-04T14:42:43.751Z,31.10
2022-08-04T14:45:10.881Z,31.10
2022-08-04T14:47:40.796Z,31.10
2022-08-04T14:50:09.764Z,31.20
2022-08-04T14:52:37.199Z,31.30
2022-08-04T14:55:17.459Z,31.30
2022-08-04T14:58:35.476Z,31.30
2022-08-04T15:00:32.301Z,31.30
2022-08-04T15:03:08.549Z,31.30
2022-08-04T15:06:01.036Z,31.30
2022-08-04T15:08:23.448Z,31.30
2022-08-04T15:10:58.821Z,31.30
2022-08-04T15:13:26.372Z,31.30
2022-08-04T15:16:02.333Z,31.30
2022-08-04T15:18:39.082Z,31.40
2022-08-04T15:21:06.775Z,31.40
2022-08-04T15:23:38.566Z,31.40
2022-08-04T15:26:07.713Z,31.40
2022-08-04T15:28:36.772Z,31.40
2022-08-04T15:31:04.386Z,31.40
2022-08-04T15:33:34.169Z,31.50
2022-08-04T15:36:15.357Z,31.50
2022-08-04T15:38:51.095Z,31.50
2022-08-04T15:41:24.413Z,31.50
2022-08-04T15:44:09.916Z,31.40
2022-08-04T15:46:44.407Z,31.40
2022-08-04T15:49:24.705Z,31.40
2022-08-04T15:52:01.613Z,31.40
2022-08-04T15:54:32.778Z,31.60
2022-08-04T15:57:02.573Z,31.60
2022-08-04T15:59:48.639Z,31.60
2022-08-04T16:02:33.822Z,31.60
2022-08-04T16:05:17.842Z,31.60
2022-08-04T16:07:57.430Z,32.00
2022-08-04T16:10:44.419Z,32.70
2022-08-04T16:13:15.101Z,33.00
2022-08-04T16:15:43.332Z,33.40
2022-08-04T16:18:25.622Z,33.50
2022-08-04T16:20:55.067Z,33.70
2022-08-04T16:23:53.046Z,33.40
2022-08-04T16:26:36.563Z,33.00
2022-08-04T16:29:24.526Z,32.60
2022-08-04T16:32:11.012Z,32.80
2022-08-04T16:34:48.902Z,32.80
2022-08-04T16:37:21.008Z,32.40
2022-08-04T16:39:50.575Z,32.00
2022-08-04T16:42:30.583Z,31.70
2022-08-04T16:45:11.358Z,31.50
2022-08-04T16:47:47.362Z,31.40
2022-08-04T16:50:15.085Z,31.30
2022-08-04T16:52:45.459Z,31.20
2022-08-04T16:55:12.628Z,31.20
2022-08-04T16:57:39.729Z,31.50
2022-08-04T17:00:07.597Z,31.50
2022-08-04T17:02:35.264Z,31.40
2022-08-04T17:05:07.703Z,31.20
2022-08-04T17:08:26.925Z,31.30
2022-08-04T17:10:43.009Z,31.30
2022-08-04T17:14:01.959Z,31.10
2022-08-04T17:16:18.972Z,31.00
2022-08-04T17:18:47.136Z,31.10
2022-08-04T17:21:15.561Z,31.10
2022-08-04T17:24:14.917Z,31.00
2022-08-04T17:26:41.569Z,30.90
2022-08-04T17:29:12.068Z,30.60
2022-08-04T17:31:40.540Z,30.50
2022-08-04T17:34:15.568Z,30.30
2022-08-04T17:36:43.735Z,30.20
2022-08-04T17:39:21.681Z,30.10
2022-08-04T17:41:54.951Z,30.00
2022-08-04T17:44:34.305Z,30.00
2022-08-04T17:47:12.805Z,30.60
2022-08-04T17:49:52.760Z,31.60
2022-08-04T17:52:37.456Z,32.20
2022-08-04T17:55:13.584Z,32.60
2022-08-04T17:57:43.359Z,32.60
2022-08-04T18:00:20.056Z,32.00
2022-08-04T18:02:52.841Z,31.50
2022-08-04T18:05:26.983Z,31.50
2022-08-04T18:08:38.396Z,31.60
2022-08-04T18:11:00.433Z,31.40
2022-08-04T18:13:28.112Z,30.80
2022-08-04T18:16:05.416Z,30.10
2022-08-04T18:18:32.925Z,29.40
2022-08-04T18:21:03.321Z,28.90
2022-08-04T18:23:32.717Z,28.50
2022-08-04T18:26:02.215Z,28.20
2022-08-04T18:28:30.951Z,28.00
2022-08-04T18:31:01.171Z,27.80
2022-08-04T18:33:40.205Z,27.60
2022-08-04T18:36:33.028Z,27.50
2022-08-04T18:38:59.421Z,27.30
2022-08-04T18:42:00.681Z,27.10
2022-08-04T18:44:29.176Z,27.00
2022-08-04T18:46:56.480Z,26.90
2022-08-04T18:50:59.272Z,26.80
2022-08-04T18:52:15.005Z,26.60
2022-08-04T18:54:42.926Z,26.50
2022-08-04T18:57:32.120Z,26.50
2022-08-04T18:59:56.777Z,26.40
2022-08-04T19:02:26.507Z,26.20
2022-08-04T19:04:53.366Z,26.20
2022-08-04T19:07:35.758Z,26.10
2022-08-04T19:10:07.532Z,26.00
2022-08-04T19:12:53.154Z,25.90
2022-08-04T19:15:19.886Z,25.80
2022-08-04T19:18:01.340Z,25.70
2022-08-04T19:20:28.283Z,25.70
2022-08-04T19:24:10.454Z,25.60
2022-08-04T19:26:01.582Z,25.60
2022-08-04T19:28:34.394Z,25.50
2022-08-04T19:31:06.028Z,25.30
2022-08-04T19:33:59.046Z,25.20
2022-08-04T19:36:19.917Z,25.20
2022-08-04T19:38:46.669Z,25.10
2022-08-04T19:41:15.279Z,25.10
2022-08-04T19:43:46.779Z,24.90
2022-08-04T19:46:14.608Z,24.80
2022-08-04T19:48:44.496Z,24.70
2022-08-04T19:51:27.987Z,24.70
2022-08-04T19:54:02.758Z,24.70
2022-08-04T19:56:39.971Z,24.50
2022-08-04T19:59:08.283Z,24.50
2022-08-04T20:01:43.738Z,24.40
2022-08-04T20:04:11.765Z,24.30
2022-08-04T20:06:39.600Z,24.30
2022-08-04T20:09:25.511Z,24.20
2022-08-04T20:11:53.590Z,24.20
2022-08-04T20:14:31.447Z,24.20
2022-08-04T20:17:00.525Z,24.10
2022-08-04T20:19:27.574Z,24.00
2022-08-04T20:21:56.579Z,24.00
2022-08-04T20:24:38.073Z,23.90
2022-08-04T20:27:15.248Z,23.80
2022-08-04T20:32:33.295Z,23.80
2022-08-04T20:35:00.202Z,23.70
2022-08-04T20:37:55.295Z,23.70
2022-08-04T20:40:14.696Z,23.60
2022-08-04T20:42:44.841Z,23.60
2022-08-04T20:45:16.466Z,23.60
2022-08-04T20:47:45.911Z,23.50
2022-08-04T20:50:30.079Z,23.40
2022-08-04T20:52:58.044Z,23.30
2022-08-04T20:55:25.071Z,23.30
2022-08-04T20:58:00.820Z,23.20
2022-08-04T21:00:30.693Z,23.20
2022-08-04T21:02:59.101Z,23.20
2022-08-04T21:05:26.435Z,23.20
2022-08-04T21:07:56.635Z,23.10
2022-08-04T21:10:26.998Z,23.00
2022-08-04T21:12:54.244Z,23.00
2022-08-04T21:18:11.217Z,22.90
2022-08-04T21:20:43.196Z,22.90
2022-08-04T21:23:10.222Z,22.90
2022-08-04T21:25:42.684Z,22.80
2022-08-04T21:28:10.711Z,22.80
2022-08-04T21:30:54.576Z,22.70
2022-08-04T21:33:23.007Z,22.70
2022-08-04T21:35:54.221Z,22.60
2022-08-04T21:38:28.084Z,22.60
2022-08-04T21:40:55.661Z,22.60
2022-08-04T21:43:23.597Z,22.50
2022-08-04T21:45:55.030Z,22.50
2022-08-04T21:48:23.159Z,22.50
2022-08-04T21:50:54.012Z,22.40
2022-08-04T21:53:21.453Z,22.40
2022-08-04T21:56:06.846Z,22.40
2022-08-04T21:58:36.081Z,22.30
2022-08-04T22:01:12.881Z,22.20
2022-08-04T22:03:51.912Z,22.20
2022-08-04T22:06:21.419Z,22.20
2022-08-04T22:08:55.780Z,22.10
2022-08-04T22:11:26.013Z,22.10
2022-08-04T22:14:11.489Z,22.10
2022-08-04T22:16:39.802Z,22.00
2022-08-04T22:19:08.780Z,22.00
2022-08-04T22:21:39.212Z,21.90
2022-08-04T22:24:13.987Z,21.90
2022-08-04T22:26:41.391Z,21.90
2022-08-04T22:29:14.314Z,21.80
2022-08-04T22:31:55.547Z,21.70
2022-08-04T22:34:23.860Z,21.70
2022-08-04T22:36:50.854Z,21.70
2022-08-04T22:39:19.200Z,21.70
2022-08-04T22:41:48.463Z,21.60
2022-08-04T22:44:29.689Z,21.60
2022-08-04T22:47:00.021Z,21.60
2022-08-04T22:49:31.969Z,21.60
2022-08-04T22:51:59.875Z,21.60
2022-08-04T22:54:36.175Z,21.50
2022-08-04T22:57:02.883Z,21.50
2022-08-04T22:59:29.584Z,21.50
2022-08-04T23:01:58.751Z,21.50
2022-08-04T23:04:28.426Z,21.40
2022-08-04T23:06:55.234Z,21.40
2022-08-04T23:09:26.903Z,21.40
2022-08-04T23:12:24.463Z,21.30
2022-08-04T23:14:53.168Z,21.30
2022-08-04T23:17:21.810Z,21.20
2022-08-04T23:19:57.601Z,21.20
2022-08-04T23:22:41.115Z,21.20
2022-08-04T23:25:15.746Z,21.20
2022-08-04T23:27:50.716Z,21.20
2022-08-04T23:30:19.545Z,21.10
2022-08-04T23:32:46.292Z,21.10
2022-08-04T23:35:15.126Z,21.10
2022-08-04T23:37:56.281Z,21.10
2022-08-04T23:40:32.679Z,21.00
2022-08-04T23:43:01.838Z,21.00
2022-08-04T23:46:01.976Z,21.00
2022-08-04T23:48:21.082Z,21.00
2022-08-04T23:50:47.906Z,20.90
2022-08-04T23:53:18.316Z,20.90
2022-08-04T23:55:45.469Z,20.80
2022-08-04T23:58:18.874Z,20.80
